sensor_id;sensor_type;location;lat;lon;timestamp;P1;durP1;ratioP1;P2;durP2;ratioP2
44446;SDS011;30152;52.066;5.358;2023-05-10T06:20:05;69.63;;;28.50;;
44446;SDS011;30152;52.066;5.358;2023-05-10T06:22:31;64.60;;;27.58;;
44446;SDS011;30152;52.066;5.358;2023-05-10T06:24:57;71.68;;;28.48;;
44446;SDS011;30152;52.066;5.358;2023-05-10T06:27:23;71.68;;;28.65;;
44446;SDS011;30152;52.066;5.358;2023-05-10T06:29:49;73.55;;;29.70;;
44446;SDS011;30152;52.066;5.358;2023-05-10T06:32:15;81.50;;;30.48;;
44446;SDS011;30152;52.066;5.358;2023-05-10T06:34:41;79.80;;;29.13;;
44446;SDS011;30152;52.066;5.358;2023-05-10T06:37:08;83.28;;;31.02;;
44446;SDS011;30152;52.066;5.358;2023-05-10T06:39:33;83.22;;;29.85;;
44446;SDS011;30152;52.066;5.358;2023-05-10T06:41:59;81.95;;;29.95;;
44446;SDS011;30152;52.066;5.358;2023-05-10T06:44:29;77.80;;;27.85;;
44446;SDS011;30152;52.066;5.358;2023-05-10T06:46:55;72.20;;;28.52;;
44446;SDS011;30152;52.066;5.358;2023-05-10T06:49:21;68.65;;;26.08;;
44446;SDS011;30152;52.066;5.358;2023-05-10T06:51:47;65.13;;;25.17;;
44446;SDS011;30152;52.066;5.358;2023-05-10T06:54:13;65.07;;;24.63;;
44446;SDS011;30152;52.066;5.358;2023-05-10T06:56:38;69.95;;;26.77;;
44446;SDS011;30152;52.066;5.358;2023-05-10T06:59:04;60.17;;;23.65;;
44446;SDS011;30152;52.066;5.358;2023-05-10T07:01:31;56.55;;;22.23;;
44446;SDS011;30152;52.066;5.358;2023-05-10T07:03:57;43.97;;;18.67;;
44446;SDS011;30152;52.066;5.358;2023-05-10T07:06:23;43.65;;;21.38;;
44446;SDS011;30152;52.066;5.358;2023-05-10T07:08:49;36.85;;;16.73;;
44446;SDS011;30152;52.066;5.358;2023-05-10T07:11:15;42.60;;;18.02;;
44446;SDS011;30152;52.066;5.358;2023-05-10T07:13:41;37.97;;;17.40;;
44446;SDS011;30152;52.066;5.358;2023-05-10T07:16:09;38.67;;;15.55;;
44446;SDS011;30152;52.066;5.358;2023-05-10T07:18:35;33.38;;;15.52;;
44446;SDS011;30152;52.066;5.358;2023-05-10T07:21:01;35.22;;;15.50;;
44446;SDS011;30152;52.066;5.358;2023-05-10T07:23:27;31.75;;;13.60;;
44446;SDS011;30152;52.066;5.358;2023-05-10T07:25:54;33.03;;;13.48;;
44446;SDS011;30152;52.066;5.358;2023-05-10T07:28:20;30.88;;;13.68;;
44446;SDS011;30152;52.066;5.358;2023-05-10T07:30:46;34.58;;;14.52;;
44446;SDS011;30152;52.066;5.358;2023-05-10T07:33:12;29.27;;;12.93;;
44446;SDS011;30152;52.066;5.358;2023-05-10T07:35:39;27.33;;;12.98;;
44446;SDS011;30152;52.066;5.358;2023-05-10T07:38:05;28.88;;;13.07;;
44446;SDS011;30152;52.066;5.358;2023-05-10T07:40:32;29.80;;;13.55;;
44446;SDS011;30152;52.066;5.358;2023-05-10T07:42:58;28.85;;;12.70;;
44446;SDS011;30152;52.066;5.358;2023-05-10T07:45:24;23.45;;;11.77;;
44446;SDS011;30152;52.066;5.358;2023-05-10T07:47:50;22.90;;;11.15;;
44446;SDS011;30152;52.066;5.358;2023-05-10T07:50:16;24.15;;;11.68;;
44446;SDS011;30152;52.066;5.358;2023-05-10T07:52:42;31.67;;;12.82;;
44446;SDS011;30152;52.066;5.358;2023-05-10T07:55:08;24.83;;;11.45;;
44446;SDS011;30152;52.066;5.358;2023-05-10T07:57:34;26.50;;;11.43;;
44446;SDS011;30152;52.066;5.358;2023-05-10T08:00:00;24.08;;;10.48;;
44446;SDS011;30152;52.066;5.358;2023-05-10T08:02:26;23.40;;;11.05;;
44446;SDS011;30152;52.066;5.358;2023-05-10T08:04:52;22.45;;;11.85;;
44446;SDS011;30152;52.066;5.358;2023-05-10T08:07:18;27.25;;;11.68;;
44446;SDS011;30152;52.066;5.358;2023-05-10T08:09:44;26.00;;;12.15;;
44446;SDS011;30152;52.066;5.358;2023-05-10T08:12:10;29.05;;;12.77;;
44446;SDS011;30152;52.066;5.358;2023-05-10T08:14:36;24.77;;;11.48;;
44446;SDS011;30152;52.066;5.358;2023-05-10T08:17:02;24.40;;;11.57;;
44446;SDS011;30152;52.066;5.358;2023-05-10T08:19:28;26.15;;;11.27;;
44446;SDS011;30152;52.066;5.358;2023-05-10T08:21:54;25.05;;;10.95;;
44446;SDS011;30152;52.066;5.358;2023-05-10T08:24:23;24.17;;;11.30;;
44446;SDS011;30152;52.066;5.358;2023-05-10T08:26:49;26.30;;;10.82;;
44446;SDS011;30152;52.066;5.358;2023-05-10T08:29:15;23.48;;;11.25;;
44446;SDS011;30152;52.066;5.358;2023-05-10T08:31:41;24.48;;;10.65;;
44446;SDS011;30152;52.066;5.358;2023-05-10T08:34:07;20.88;;;10.95;;
44446;SDS011;30152;52.066;5.358;2023-05-10T08:36:33;26.80;;;10.77;;
44446;SDS011;30152;52.066;5.358;2023-05-10T08:38:58;21.10;;;10.15;;
44446;SDS011;30152;52.066;5.358;2023-05-10T08:41:24;24.60;;;12.30;;
44446;SDS011;30152;52.066;5.358;2023-05-10T08:43:51;19.30;;;10.00;;
44446;SDS011;30152;52.066;5.358;2023-05-10T08:46:18;22.73;;;10.48;;
44446;SDS011;30152;52.066;5.358;2023-05-10T08:48:46;21.35;;;10.07;;
44446;SDS011;30152;52.066;5.358;2023-05-10T08:51:13;25.15;;;11.63;;
44446;SDS011;30152;52.066;5.358;2023-05-10T08:53:42;25.50;;;11.02;;
44446;SDS011;30152;52.066;5.358;2023-05-10T08:56:09;22.00;;;10.50;;
44446;SDS011;30152;52.066;5.358;2023-05-10T08:58:34;25.55;;;10.93;;
44446;SDS011;30152;52.066;5.358;2023-05-10T09:01:01;19.35;;;9.73;;
44446;SDS011;30152;52.066;5.358;2023-05-10T09:03:28;24.98;;;11.30;;
44446;SDS011;30152;52.066;5.358;2023-05-10T09:05:55;24.30;;;11.70;;
44446;SDS011;30152;52.066;5.358;2023-05-10T09:08:22;18.63;;;9.95;;
44446;SDS011;30152;52.066;5.358;2023-05-10T09:10:50;19.60;;;10.73;;
44446;SDS011;30152;52.066;5.358;2023-05-10T09:13:17;23.20;;;10.43;;
44446;SDS011;30152;52.066;5.358;2023-05-10T09:15:44;22.55;;;10.75;;
44446;SDS011;30152;52.066;5.358;2023-05-10T09:18:10;23.63;;;11.20;;
44446;SDS011;30152;52.066;5.358;2023-05-10T09:20:36;20.10;;;9.70;;
44446;SDS011;30152;52.066;5.358;2023-05-10T09:23:02;21.38;;;10.73;;
44446;SDS011;30152;52.066;5.358;2023-05-10T09:25:27;19.17;;;9.57;;
44446;SDS011;30152;52.066;5.358;2023-05-10T09:27:53;20.25;;;9.70;;
44446;SDS011;30152;52.066;5.358;2023-05-10T09:30:23;18.20;;;8.90;;
44446;SDS011;30152;52.066;5.358;2023-05-10T09:32:53;17.60;;;9.30;;
44446;SDS011;30152;52.066;5.358;2023-05-10T09:35:21;16.85;;;8.40;;
44446;SDS011;30152;52.066;5.358;2023-05-10T09:37:49;17.23;;;8.40;;
44446;SDS011;30152;52.066;5.358;2023-05-10T09:40:17;18.35;;;8.23;;
44446;SDS011;30152;52.066;5.358;2023-05-10T09:42:57;18.23;;;8.38;;
44446;SDS011;30152;52.066;5.358;2023-05-10T09:45:27;12.18;;;6.68;;
44446;SDS011;30152;52.066;5.358;2023-05-10T09:47:54;12.57;;;6.05;;
44446;SDS011;30152;52.066;5.358;2023-05-10T09:50:20;15.00;;;6.82;;
44446;SDS011;30152;52.066;5.358;2023-05-10T09:52:50;17.30;;;6.65;;
44446;SDS011;30152;52.066;5.358;2023-05-10T09:55:16;17.15;;;7.85;;
44446;SDS011;30152;52.066;5.358;2023-05-10T09:57:43;17.92;;;8.73;;
44446;SDS011;30152;52.066;5.358;2023-05-10T10:00:09;17.30;;;8.18;;
44446;SDS011;30152;52.066;5.358;2023-05-10T10:02:35;19.98;;;8.68;;
44446;SDS011;30152;52.066;5.358;2023-05-10T10:05:01;18.05;;;9.00;;
44446;SDS011;30152;52.066;5.358;2023-05-10T10:07:30;18.13;;;8.70;;
44446;SDS011;30152;52.066;5.358;2023-05-10T10:09:56;22.20;;;9.70;;
44446;SDS011;30152;52.066;5.358;2023-05-10T10:12:22;16.88;;;9.43;;
44446;SDS011;30152;52.066;5.358;2023-05-10T10:14:48;19.60;;;9.50;;
44446;SDS011;30152;52.066;5.358;2023-05-10T10:17:15;20.85;;;10.30;;
44446;SDS011;30152;52.066;5.358;2023-05-10T10:19:41;15.65;;;8.90;;
44446;SDS011;30152;52.066;5.358;2023-05-10T10:22:07;21.13;;;9.55;;
44446;SDS011;30152;52.066;5.358;2023-05-10T10:24:33;20.00;;;9.50;;
44446;SDS011;30152;52.066;5.358;2023-05-10T10:27:01;17.27;;;9.98;;
44446;SDS011;30152;52.066;5.358;2023-05-10T10:29:38;20.67;;;10.55;;
44446;SDS011;30152;52.066;5.358;2023-05-10T10:32:25;19.88;;;10.07;;
44446;SDS011;30152;52.066;5.358;2023-05-10T10:34:56;19.23;;;9.10;;
44446;SDS011;30152;52.066;5.358;2023-05-10T10:37:22;19.38;;;8.65;;
44446;SDS011;30152;52.066;5.358;2023-05-10T10:39:48;21.20;;;8.90;;
44446;SDS011;30152;52.066;5.358;2023-05-10T10:42:15;15.40;;;8.20;;
44446;SDS011;30152;52.066;5.358;2023-05-10T10:45:14;19.67;;;8.80;;
44446;SDS011;30152;52.066;5.358;2023-05-10T10:47:40;17.52;;;7.97;;
44446;SDS011;30152;52.066;5.358;2023-05-10T10:50:08;18.63;;;7.47;;
44446;SDS011;30152;52.066;5.358;2023-05-10T10:52:35;15.48;;;6.82;;
44446;SDS011;30152;52.066;5.358;2023-05-10T10:55:08;13.23;;;6.47;;
44446;SDS011;30152;52.066;5.358;2023-05-10T10:57:46;13.77;;;6.50;;
44446;SDS011;30152;52.066;5.358;2023-05-10T11:02:58;13.25;;;6.07;;
44446;SDS011;30152;52.066;5.358;2023-05-10T11:10:34;11.93;;;5.35;;
44446;SDS011;30152;52.066;5.358;2023-05-10T11:13:03;12.30;;;6.30;;
44446;SDS011;30152;52.066;5.358;2023-05-10T11:15:34;10.65;;;5.90;;
44446;SDS011;30152;52.066;5.358;2023-05-10T11:18:16;13.15;;;6.75;;
44446;SDS011;30152;52.066;5.358;2023-05-10T11:20:51;13.50;;;6.47;;
44446;SDS011;30152;52.066;5.358;2023-05-10T11:23:29;11.88;;;5.60;;
44446;SDS011;30152;52.066;5.358;2023-05-10T11:26:06;12.60;;;6.07;;
44446;SDS011;30152;52.066;5.358;2023-05-10T11:28:34;15.30;;;6.22;;
44446;SDS011;30152;52.066;5.358;2023-05-10T11:31:10;15.05;;;7.13;;
44446;SDS011;30152;52.066;5.358;2023-05-10T11:36:20;14.63;;;5.57;;
44446;SDS011;30152;52.066;5.358;2023-05-10T11:38:47;11.52;;;5.47;;
44446;SDS011;30152;52.066;5.358;2023-05-10T11:41:14;12.43;;;5.80;;
44446;SDS011;30152;52.066;5.358;2023-05-10T11:43:41;11.95;;;5.60;;
44446;SDS011;30152;52.066;5.358;2023-05-10T11:46:07;9.18;;;4.53;;
44446;SDS011;30152;52.066;5.358;2023-05-10T11:48:33;12.82;;;4.68;;
44446;SDS011;30152;52.066;5.358;2023-05-10T11:51:00;9.85;;;4.75;;
44446;SDS011;30152;52.066;5.358;2023-05-10T11:53:27;9.45;;;4.35;;
44446;SDS011;30152;52.066;5.358;2023-05-10T11:55:53;9.88;;;4.25;;
44446;SDS011;30152;52.066;5.358;2023-05-10T11:58:19;10.48;;;4.15;;
44446;SDS011;30152;52.066;5.358;2023-05-10T12:00:46;9.32;;;4.18;;
44446;SDS011;30152;52.066;5.358;2023-05-10T12:03:13;10.07;;;3.85;;
44446;SDS011;30152;52.066;5.358;2023-05-10T12:05:39;8.88;;;3.97;;
44446;SDS011;30152;52.066;5.358;2023-05-10T12:08:13;7.38;;;3.67;;
44446;SDS011;30152;52.066;5.358;2023-05-10T12:10:39;10.35;;;3.72;;
44446;SDS011;30152;52.066;5.358;2023-05-10T12:13:05;9.00;;;4.22;;
44446;SDS011;30152;52.066;5.358;2023-05-10T12:15:36;9.45;;;4.07;;
44446;SDS011;30152;52.066;5.358;2023-05-10T12:18:02;10.02;;;4.10;;
44446;SDS011;30152;52.066;5.358;2023-05-10T12:20:28;9.95;;;4.65;;
44446;SDS011;30152;52.066;5.358;2023-05-10T12:22:56;8.68;;;4.38;;
44446;SDS011;30152;52.066;5.358;2023-05-10T12:25:23;11.02;;;5.07;;
44446;SDS011;30152;52.066;5.358;2023-05-10T12:27:51;12.40;;;5.78;;
44446;SDS011;30152;52.066;5.358;2023-05-10T12:30:27;10.52;;;3.78;;
44446;SDS011;30152;52.066;5.358;2023-05-10T12:32:54;9.45;;;3.85;;
44446;SDS011;30152;52.066;5.358;2023-05-10T12:35:24;8.63;;;4.07;;
44446;SDS011;30152;52.066;5.358;2023-05-10T12:37:50;8.13;;;3.97;;
44446;SDS011;30152;52.066;5.358;2023-05-10T12:40:16;13.32;;;4.38;;
44446;SDS011;30152;52.066;5.358;2023-05-10T12:42:42;11.13;;;3.50;;
44446;SDS011;30152;52.066;5.358;2023-05-10T12:45:11;9.43;;;5.95;;
44446;SDS011;30152;52.066;5.358;2023-05-10T12:47:37;12.40;;;6.30;;
44446;SDS011;30152;52.066;5.358;2023-05-10T12:50:04;9.73;;;6.35;;
44446;SDS011;30152;52.066;5.358;2023-05-10T12:52:30;11.85;;;6.60;;
44446;SDS011;30152;52.066;5.358;2023-05-10T12:54:57;15.48;;;7.00;;
44446;SDS011;30152;52.066;5.358;2023-05-10T12:57:23;13.48;;;6.97;;
44446;SDS011;30152;52.066;5.358;2023-05-10T12:59:49;13.23;;;8.52;;
44446;SDS011;30152;52.066;5.358;2023-05-10T13:02:15;14.20;;;8.98;;
44446;SDS011;30152;52.066;5.358;2023-05-10T13:04:45;15.10;;;9.23;;
44446;SDS011;30152;52.066;5.358;2023-05-10T13:07:12;18.15;;;10.90;;
44446;SDS011;30152;52.066;5.358;2023-05-10T13:09:38;17.88;;;10.77;;
44446;SDS011;30152;52.066;5.358;2023-05-10T13:12:04;16.63;;;10.20;;
44446;SDS011;30152;52.066;5.358;2023-05-10T13:14:30;15.73;;;8.18;;
44446;SDS011;30152;52.066;5.358;2023-05-10T13:16:56;15.02;;;7.47;;
44446;SDS011;30152;52.066;5.358;2023-05-10T13:19:22;16.33;;;6.95;;
44446;SDS011;30152;52.066;5.358;2023-05-10T13:21:48;14.75;;;6.57;;
44446;SDS011;30152;52.066;5.358;2023-05-10T13:24:14;14.93;;;6.80;;
44446;SDS011;30152;52.066;5.358;2023-05-10T13:26:41;17.33;;;7.28;;
44446;SDS011;30152;52.066;5.358;2023-05-10T13:29:07;17.33;;;7.72;;
44446;SDS011;30152;52.066;5.358;2023-05-10T13:31:34;15.43;;;7.03;;
44446;SDS011;30152;52.066;5.358;2023-05-10T13:34:00;16.60;;;7.13;;
44446;SDS011;30152;52.066;5.358;2023-05-10T13:36:27;17.33;;;7.20;;
44446;SDS011;30152;52.066;5.358;2023-05-10T13:38:53;20.42;;;7.85;;
44446;SDS011;30152;52.066;5.358;2023-05-10T13:41:19;15.48;;;7.95;;
44446;SDS011;30152;52.066;5.358;2023-05-10T13:43:45;17.73;;;8.25;;
44446;SDS011;30152;52.066;5.358;2023-05-10T13:46:10;18.17;;;8.05;;
44446;SDS011;30152;52.066;5.358;2023-05-10T13:48:36;17.23;;;8.23;;
44446;SDS011;30152;52.066;5.358;2023-05-10T13:51:02;19.20;;;8.80;;
44446;SDS011;30152;52.066;5.358;2023-05-10T13:53:28;21.05;;;9.77;;
44446;SDS011;30152;52.066;5.358;2023-05-10T13:55:54;18.90;;;9.77;;
44446;SDS011;30152;52.066;5.358;2023-05-10T13:58:20;20.85;;;9.85;;
44446;SDS011;30152;52.066;5.358;2023-05-10T14:00:46;26.88;;;10.65;;
44446;SDS011;30152;52.066;5.358;2023-05-10T14:03:12;23.48;;;9.82;;
44446;SDS011;30152;52.066;5.358;2023-05-10T14:05:38;21.85;;;10.02;;
44446;SDS011;30152;52.066;5.358;2023-05-10T14:08:04;24.88;;;10.95;;
44446;SDS011;30152;52.066;5.358;2023-05-10T14:10:30;27.15;;;12.27;;
44446;SDS011;30152;52.066;5.358;2023-05-10T14:12:56;28.90;;;11.40;;
44446;SDS011;30152;52.066;5.358;2023-05-10T14:15:22;25.60;;;11.55;;
44446;SDS011;30152;52.066;5.358;2023-05-10T14:17:48;29.23;;;11.77;;
44446;SDS011;30152;52.066;5.358;2023-05-10T14:20:14;29.90;;;12.50;;
44446;SDS011;30152;52.066;5.358;2023-05-10T14:22:40;28.52;;;12.25;;
44446;SDS011;30152;52.066;5.358;2023-05-10T14:25:06;26.50;;;12.63;;
44446;SDS011;30152;52.066;5.358;2023-05-10T14:27:32;31.33;;;12.70;;
44446;SDS011;30152;52.066;5.358;2023-05-10T14:29:58;30.27;;;12.70;;
44446;SDS011;30152;52.066;5.358;2023-05-10T14:32:24;29.88;;;12.80;;
44446;SDS011;30152;52.066;5.358;2023-05-10T14:34:51;28.85;;;12.45;;
44446;SDS011;30152;52.066;5.358;2023-05-10T14:37:17;26.05;;;12.55;;
44446;SDS011;30152;52.066;5.358;2023-05-10T14:39:43;32.63;;;13.35;;
44446;SDS011;30152;52.066;5.358;2023-05-10T14:42:09;30.27;;;13.10;;
44446;SDS011;30152;52.066;5.358;2023-05-10T14:44:35;28.60;;;12.70;;
44446;SDS011;30152;52.066;5.358;2023-05-10T14:47:01;30.98;;;12.75;;
44446;SDS011;30152;52.066;5.358;2023-05-10T14:49:27;26.05;;;11.20;;
44446;SDS011;30152;52.066;5.358;2023-05-10T14:51:54;33.38;;;13.20;;
44446;SDS011;30152;52.066;5.358;2023-05-10T14:54:19;31.20;;;12.32;;
44446;SDS011;30152;52.066;5.358;2023-05-10T14:56:46;26.13;;;11.40;;
44446;SDS011;30152;52.066;5.358;2023-05-10T14:59:14;24.38;;;10.90;;
44446;SDS011;30152;52.066;5.358;2023-05-10T15:01:40;27.65;;;11.57;;
44446;SDS011;30152;52.066;5.358;2023-05-10T15:04:07;25.83;;;11.75;;
44446;SDS011;30152;52.066;5.358;2023-05-10T15:06:33;22.63;;;10.60;;
44446;SDS011;30152;52.066;5.358;2023-05-10T15:09:00;24.38;;;10.18;;
44446;SDS011;30152;52.066;5.358;2023-05-10T15:11:26;22.88;;;10.85;;
44446;SDS011;30152;52.066;5.358;2023-05-10T15:13:53;24.58;;;10.82;;
44446;SDS011;30152;52.066;5.358;2023-05-10T15:16:19;23.20;;;10.05;;
44446;SDS011;30152;52.066;5.358;2023-05-10T15:18:45;21.90;;;10.40;;
44446;SDS011;30152;52.066;5.358;2023-05-10T15:21:11;20.55;;;9.70;;
44446;SDS011;30152;52.066;5.358;2023-05-10T15:23:37;19.42;;;9.38;;
44446;SDS011;30152;52.066;5.358;2023-05-10T15:26:03;21.60;;;9.85;;
44446;SDS011;30152;52.066;5.358;2023-05-10T15:28:29;20.17;;;8.40;;
44446;SDS011;30152;52.066;5.358;2023-05-10T15:30:55;19.08;;;9.23;;
44446;SDS011;30152;52.066;5.358;2023-05-10T15:33:21;19.05;;;10.05;;
44446;SDS011;30152;52.066;5.358;2023-05-10T15:35:47;19.27;;;8.45;;
44446;SDS011;30152;52.066;5.358;2023-05-10T15:38:13;22.08;;;10.27;;
44446;SDS011;30152;52.066;5.358;2023-05-10T15:40:39;18.40;;;9.23;;
44446;SDS011;30152;52.066;5.358;2023-05-10T15:43:05;19.23;;;9.65;;
44446;SDS011;30152;52.066;5.358;2023-05-10T15:45:32;21.48;;;9.38;;
44446;SDS011;30152;52.066;5.358;2023-05-10T15:47:58;21.60;;;10.38;;
44446;SDS011;30152;52.066;5.358;2023-05-10T15:50:24;19.63;;;9.90;;
44446;SDS011;30152;52.066;5.358;2023-05-10T15:52:50;17.60;;;8.55;;
44446;SDS011;30152;52.066;5.358;2023-05-10T15:55:16;19.98;;;9.48;;
44446;SDS011;30152;52.066;5.358;2023-05-10T15:57:42;21.65;;;9.75;;
44446;SDS011;30152;52.066;5.358;2023-05-10T16:00:09;23.77;;;9.93;;
44446;SDS011;30152;52.066;5.358;2023-05-10T16:02:35;18.20;;;8.77;;
44446;SDS011;30152;52.066;5.358;2023-05-10T16:05:01;21.63;;;9.27;;
44446;SDS011;30152;52.066;5.358;2023-05-10T16:07:27;22.52;;;9.40;;
44446;SDS011;30152;52.066;5.358;2023-05-10T16:09:53;17.33;;;8.90;;
44446;SDS011;30152;52.066;5.358;2023-05-10T16:12:19;21.65;;;10.65;;
44446;SDS011;30152;52.066;5.358;2023-05-10T16:14:45;21.20;;;9.15;;
44446;SDS011;30152;52.066;5.358;2023-05-10T16:17:11;18.50;;;8.45;;
44446;SDS011;30152;52.066;5.358;2023-05-10T16:19:38;16.52;;;8.32;;
44446;SDS011;30152;52.066;5.358;2023-05-10T16:22:05;19.48;;;8.30;;
44446;SDS011;30152;52.066;5.358;2023-05-10T16:24:30;18.60;;;8.18;;
44446;SDS011;30152;52.066;5.358;2023-05-10T16:26:56;19.23;;;8.15;;
44446;SDS011;30152;52.066;5.358;2023-05-10T16:29:22;18.85;;;8.25;;
44446;SDS011;30152;52.066;5.358;2023-05-10T16:31:48;18.25;;;8.07;;
44446;SDS011;30152;52.066;5.358;2023-05-10T16:34:14;19.70;;;8.05;;
44446;SDS011;30152;52.066;5.358;2023-05-10T16:36:41;15.23;;;7.03;;
44446;SDS011;30152;52.066;5.358;2023-05-10T16:39:06;14.80;;;7.28;;
44446;SDS011;30152;52.066;5.358;2023-05-10T16:41:33;15.15;;;8.07;;
44446;SDS011;30152;52.066;5.358;2023-05-10T16:44:00;15.13;;;6.07;;
44446;SDS011;30152;52.066;5.358;2023-05-10T16:46:26;15.23;;;7.78;;
44446;SDS011;30152;52.066;5.358;2023-05-10T16:48:52;13.48;;;6.53;;
44446;SDS011;30152;52.066;5.358;2023-05-10T16:51:18;13.70;;;7.25;;
44446;SDS011;30152;52.066;5.358;2023-05-10T16:53:44;15.02;;;6.97;;
44446;SDS011;30152;52.066;5.358;2023-05-10T16:56:10;17.83;;;7.03;;
44446;SDS011;30152;52.066;5.358;2023-05-10T16:58:36;15.27;;;7.07;;
44446;SDS011;30152;52.066;5.358;2023-05-10T17:01:02;15.20;;;6.93;;
44446;SDS011;30152;52.066;5.358;2023-05-10T17:03:28;14.10;;;7.30;;
44446;SDS011;30152;52.066;5.358;2023-05-10T17:05:54;17.50;;;6.70;;
44446;SDS011;30152;52.066;5.358;2023-05-10T17:08:20;15.85;;;6.28;;
44446;SDS011;30152;52.066;5.358;2023-05-10T17:10:46;14.73;;;6.38;;
44446;SDS011;30152;52.066;5.358;2023-05-10T17:13:12;15.93;;;6.50;;
44446;SDS011;30152;52.066;5.358;2023-05-10T17:15:40;21.00;;;7.65;;
44446;SDS011;30152;52.066;5.358;2023-05-10T17:18:06;16.55;;;6.97;;
44446;SDS011;30152;52.066;5.358;2023-05-10T17:20:34;12.48;;;7.20;;
44446;SDS011;30152;52.066;5.358;2023-05-10T17:23:00;15.80;;;7.43;;
44446;SDS011;30152;52.066;5.358;2023-05-10T17:25:27;15.00;;;7.50;;
44446;SDS011;30152;52.066;5.358;2023-05-10T17:27:53;15.55;;;6.95;;
44446;SDS011;30152;52.066;5.358;2023-05-10T17:30:19;12.93;;;6.22;;
44446;SDS011;30152;52.066;5.358;2023-05-10T17:32:50;12.65;;;5.90;;
44446;SDS011;30152;52.066;5.358;2023-05-10T17:35:17;13.35;;;6.13;;
44446;SDS011;30152;52.066;5.358;2023-05-10T17:37:43;14.75;;;6.60;;
44446;SDS011;30152;52.066;5.358;2023-05-10T17:40:09;16.13;;;6.63;;
44446;SDS011;30152;52.066;5.358;2023-05-10T17:42:35;19.35;;;6.90;;
44446;SDS011;30152;52.066;5.358;2023-05-10T17:45:01;14.55;;;6.60;;
44446;SDS011;30152;52.066;5.358;2023-05-10T17:47:27;18.35;;;7.07;;
44446;SDS011;30152;52.066;5.358;2023-05-10T17:49:53;14.77;;;6.90;;
44446;SDS011;30152;52.066;5.358;2023-05-10T17:52:19;13.40;;;5.95;;
44446;SDS011;30152;52.066;5.358;2023-05-10T17:54:45;15.55;;;6.50;;
44446;SDS011;30152;52.066;5.358;2023-05-10T17:57:11;12.57;;;6.57;;
44446;SDS011;30152;52.066;5.358;2023-05-10T17:59:37;15.10;;;6.30;;
44446;SDS011;30152;52.066;5.358;2023-05-10T18:02:03;14.88;;;6.25;;
44446;SDS011;30152;52.066;5.358;2023-05-10T18:04:29;17.05;;;7.40;;
44446;SDS011;30152;52.066;5.358;2023-05-10T18:06:55;17.58;;;7.35;;
44446;SDS011;30152;52.066;5.358;2023-05-10T18:09:25;20.45;;;7.88;;
44446;SDS011;30152;52.066;5.358;2023-05-10T18:11:51;15.35;;;6.72;;
44446;SDS011;30152;52.066;5.358;2023-05-10T18:14:17;15.40;;;7.63;;
44446;SDS011;30152;52.066;5.358;2023-05-10T18:16:44;18.17;;;8.65;;
44446;SDS011;30152;52.066;5.358;2023-05-10T18:19:10;18.48;;;7.35;;
44446;SDS011;30152;52.066;5.358;2023-05-10T18:21:36;19.50;;;8.55;;
44446;SDS011;30152;52.066;5.358;2023-05-10T18:24:02;16.33;;;7.18;;
44446;SDS011;30152;52.066;5.358;2023-05-10T18:26:28;14.02;;;7.93;;
44446;SDS011;30152;52.066;5.358;2023-05-10T18:28:54;14.60;;;7.63;;
44446;SDS011;30152;52.066;5.358;2023-05-10T18:31:20;15.95;;;7.78;;
44446;SDS011;30152;52.066;5.358;2023-05-10T18:33:46;15.63;;;7.50;;
44446;SDS011;30152;52.066;5.358;2023-05-10T18:36:12;16.45;;;8.20;;
44446;SDS011;30152;52.066;5.358;2023-05-10T18:38:39;17.08;;;8.23;;
44446;SDS011;30152;52.066;5.358;2023-05-10T18:41:05;15.55;;;7.45;;
44446;SDS011;30152;52.066;5.358;2023-05-10T18:43:31;17.83;;;8.93;;
44446;SDS011;30152;52.066;5.358;2023-05-10T18:45:58;14.93;;;7.78;;
44446;SDS011;30152;52.066;5.358;2023-05-10T18:48:24;17.63;;;7.60;;
44446;SDS011;30152;52.066;5.358;2023-05-10T18:50:50;21.00;;;8.82;;
44446;SDS011;30152;52.066;5.358;2023-05-10T18:53:16;15.80;;;8.90;;
44446;SDS011;30152;52.066;5.358;2023-05-10T18:55:42;18.52;;;8.85;;
44446;SDS011;30152;52.066;5.358;2023-05-10T18:58:08;16.25;;;8.73;;
44446;SDS011;30152;52.066;5.358;2023-05-10T19:00:34;17.73;;;8.98;;
44446;SDS011;30152;52.066;5.358;2023-05-10T19:03:00;17.52;;;8.10;;
44446;SDS011;30152;52.066;5.358;2023-05-10T19:05:25;17.30;;;8.18;;
44446;SDS011;30152;52.066;5.358;2023-05-10T19:07:54;15.50;;;7.80;;
44446;SDS011;30152;52.066;5.358;2023-05-10T19:10:20;18.45;;;8.65;;
44446;SDS011;30152;52.066;5.358;2023-05-10T19:12:46;17.60;;;8.10;;
44446;SDS011;30152;52.066;5.358;2023-05-10T19:15:12;17.92;;;9.18;;
44446;SDS011;30152;52.066;5.358;2023-05-10T19:17:38;19.10;;;8.60;;
44446;SDS011;30152;52.066;5.358;2023-05-10T19:20:05;17.92;;;8.30;;
44446;SDS011;30152;52.066;5.358;2023-05-10T19:22:31;16.13;;;8.48;;
44446;SDS011;30152;52.066;5.358;2023-05-10T19:24:57;20.15;;;8.63;;
44446;SDS011;30152;52.066;5.358;2023-05-10T19:27:23;23.05;;;11.02;;
44446;SDS011;30152;52.066;5.358;2023-05-10T19:29:49;22.83;;;10.38;;
44446;SDS011;30152;52.066;5.358;2023-05-10T19:32:16;22.25;;;10.38;;
44446;SDS011;30152;52.066;5.358;2023-05-10T19:34:42;22.35;;;9.95;;
44446;SDS011;30152;52.066;5.358;2023-05-10T19:37:08;17.70;;;9.35;;
44446;SDS011;30152;52.066;5.358;2023-05-10T19:39:34;22.30;;;8.35;;
44446;SDS011;30152;52.066;5.358;2023-05-10T19:42:00;18.63;;;8.20;;
44446;SDS011;30152;52.066;5.358;2023-05-10T19:44:26;18.00;;;8.45;;
44446;SDS011;30152;52.066;5.358;2023-05-10T19:46:51;21.60;;;9.05;;
44446;SDS011;30152;52.066;5.358;2023-05-10T19:49:17;22.85;;;9.25;;
44446;SDS011;30152;52.066;5.358;2023-05-10T19:51:43;17.48;;;8.98;;
44446;SDS011;30152;52.066;5.358;2023-05-10T19:54:09;18.90;;;8.85;;
44446;SDS011;30152;52.066;5.358;2023-05-10T19:56:35;22.83;;;9.43;;
44446;SDS011;30152;52.066;5.358;2023-05-10T19:59:01;23.90;;;9.18;;
44446;SDS011;30152;52.066;5.358;2023-05-10T20:01:28;22.27;;;10.00;;
44446;SDS011;30152;52.066;5.358;2023-05-10T20:03:54;23.77;;;10.02;;
44446;SDS011;30152;52.066;5.358;2023-05-10T20:06:20;20.25;;;10.07;;
44446;SDS011;30152;52.066;5.358;2023-05-10T20:08:46;23.15;;;10.38;;
44446;SDS011;30152;52.066;5.358;2023-05-10T20:11:12;23.80;;;9.50;;
44446;SDS011;30152;52.066;5.358;2023-05-10T20:13:38;19.50;;;9.73;;
44446;SDS011;30152;52.066;5.358;2023-05-10T20:16:04;21.02;;;9.82;;
44446;SDS011;30152;52.066;5.358;2023-05-10T20:18:31;21.45;;;9.80;;
44446;SDS011;30152;52.066;5.358;2023-05-10T20:20:58;21.38;;;9.68;;
44446;SDS011;30152;52.066;5.358;2023-05-10T20:23:24;19.67;;;9.65;;
44446;SDS011;30152;52.066;5.358;2023-05-10T20:25:50;21.13;;;10.30;;
44446;SDS011;30152;52.066;5.358;2023-05-10T20:28:19;21.77;;;11.38;;
44446;SDS011;30152;52.066;5.358;2023-05-10T20:30:46;26.13;;;11.93;;
44446;SDS011;30152;52.066;5.358;2023-05-10T20:33:12;22.10;;;10.85;;
44446;SDS011;30152;52.066;5.358;2023-05-10T20:35:41;25.80;;;12.07;;
44446;SDS011;30152;52.066;5.358;2023-05-10T20:38:07;25.13;;;11.18;;
44446;SDS011;30152;52.066;5.358;2023-05-10T20:40:33;26.88;;;12.23;;
44446;SDS011;30152;52.066;5.358;2023-05-10T20:43:00;33.55;;;12.07;;
44446;SDS011;30152;52.066;5.358;2023-05-10T20:45:26;28.70;;;12.55;;
44446;SDS011;30152;52.066;5.358;2023-05-10T20:47:52;32.22;;;12.65;;
44446;SDS011;30152;52.066;5.358;2023-05-10T20:50:18;29.55;;;12.45;;
44446;SDS011;30152;52.066;5.358;2023-05-10T20:52:44;35.03;;;13.38;;
44446;SDS011;30152;52.066;5.358;2023-05-10T20:55:10;28.58;;;12.00;;
44446;SDS011;30152;52.066;5.358;2023-05-10T20:57:36;28.10;;;11.50;;